createdAt,value
2022-12-14T00:02:15.018Z,14.07
2022-12-14T00:04:43.067Z,16.92
2022-12-14T00:07:10.864Z,17.02
2022-12-14T00:09:39.391Z,16.15
2022-12-14T00:12:10.201Z,17.90
2022-12-14T00:14:38.771Z,19.42
2022-12-14T00:17:08.358Z,19.70
2022-12-14T00:19:36.161Z,19.20
2022-12-14T00:22:06.878Z,20.30
2022-12-14T00:24:35.031Z,18.20
2022-12-14T00:27:02.952Z,17.77
2022-12-14T00:29:30.886Z,16.85
2022-12-14T00:31:58.851Z,18.75
2022-12-14T00:34:26.342Z,18.95
2022-12-14T00:36:54.975Z,18.02
2022-12-14T00:39:22.878Z,18.88
2022-12-14T00:41:50.503Z,18.77
2022-12-14T00:44:18.438Z,18.70
2022-12-14T00:46:46.321Z,17.30
2022-12-14T00:49:14.324Z,17.52
2022-12-14T00:51:41.566Z,17.65
2022-12-14T00:54:10.478Z,19.52
2022-12-14T00:56:37.770Z,17.65
2022-12-14T00:59:05.161Z,19.95
2022-12-14T01:01:32.625Z,17.85
2022-12-14T01:04:18.193Z,18.50
2022-12-14T01:06:47.987Z,19.60
2022-12-14T01:09:16.609Z,21.40
2022-12-14T01:11:44.957Z,18.75
2022-12-14T01:14:15.874Z,17.35
2022-12-14T01:16:43.885Z,19.45
2022-12-14T01:19:14.023Z,16.73
2022-12-14T01:21:41.920Z,18.67
2022-12-14T01:24:10.674Z,17.25
2022-12-14T01:26:40.151Z,15.07
2022-12-14T01:29:08.554Z,18.38
2022-12-14T01:31:38.165Z,18.92
2022-12-14T01:34:06.333Z,18.40
2022-12-14T01:36:35.590Z,16.42
2022-12-14T01:39:13.937Z,16.35
2022-12-14T01:41:49.555Z,15.77
2022-12-14T01:44:17.107Z,15.70
2022-12-14T01:46:55.941Z,16.15
2022-12-14T01:49:47.356Z,16.13
2022-12-14T01:52:25.469Z,15.80
2022-12-14T01:55:12.338Z,16.55
2022-12-14T01:58:03.737Z,13.88
2022-12-14T02:00:31.400Z,14.00
2022-12-14T02:03:09.440Z,10.82
2022-12-14T02:05:44.421Z,13.30
2022-12-14T02:08:15.078Z,13.55
2022-12-14T02:10:44.390Z,10.90
2022-12-14T02:13:20.387Z,14.80
2022-12-14T02:15:47.834Z,14.25
2022-12-14T02:18:26.718Z,12.63
2022-12-14T02:21:19.493Z,14.02
2022-12-14T02:24:20.270Z,13.02
2022-12-14T02:27:27.589Z,13.40
2022-12-14T02:30:17.427Z,12.43
2022-12-14T02:33:15.799Z,12.15
2022-12-14T02:35:51.996Z,13.75
2022-12-14T02:38:40.664Z,12.95
2022-12-14T02:41:23.308Z,15.10
2022-12-14T02:44:28.155Z,11.50
2022-12-14T02:47:09.961Z,13.25
2022-12-14T02:50:06.730Z,13.40
2022-12-14T02:53:15.917Z,14.52
2022-12-14T02:55:53.001Z,13.40
2022-12-14T02:58:30.456Z,12.43
2022-12-14T03:00:59.022Z,13.13
2022-12-14T03:03:27.341Z,11.60
2022-12-14T03:06:27.342Z,13.88
2022-12-14T03:09:03.206Z,11.00
2022-12-14T03:11:46.677Z,12.65
2022-12-14T03:14:32.351Z,13.13
2022-12-14T03:17:15.193Z,12.50
2022-12-14T03:20:00.031Z,12.65
2022-12-14T03:25:15.181Z,12.65
2022-12-14T03:27:53.711Z,14.10
2022-12-14T03:30:44.295Z,13.35
2022-12-14T03:33:17.303Z,13.82
2022-12-14T03:35:57.755Z,13.93
2022-12-14T03:38:29.510Z,13.02
2022-12-14T03:41:20.431Z,14.90
2022-12-14T03:43:55.247Z,15.50
2022-12-14T03:46:56.100Z,12.00
2022-12-14T03:50:13.959Z,14.70
2022-12-14T03:52:59.480Z,14.27
2022-12-14T03:56:32.544Z,13.43
2022-12-14T03:59:15.529Z,14.10
2022-12-14T04:02:11.292Z,13.40
2022-12-14T04:05:03.174Z,11.70
2022-12-14T04:07:52.933Z,12.53
2022-12-14T04:10:47.141Z,12.80
2022-12-14T04:13:44.446Z,13.40
2022-12-14T04:16:44.502Z,16.17
2022-12-14T04:19:29.547Z,13.05
2022-12-14T04:22:06.397Z,13.20
2022-12-14T04:25:14.753Z,12.50
2022-12-14T04:27:50.828Z,10.60
2022-12-14T04:30:18.923Z,12.95
2022-12-14T04:32:54.763Z,13.88
2022-12-14T04:35:31.008Z,14.07
2022-12-14T04:39:01.052Z,13.98
2022-12-14T04:44:06.731Z,13.27
2022-12-14T04:47:14.824Z,13.27
2022-12-14T04:50:26.825Z,12.65
2022-12-14T04:53:13.740Z,9.68
2022-12-14T04:55:58.596Z,12.38
2022-12-14T04:58:29.921Z,12.20
2022-12-14T05:01:18.553Z,13.97
2022-12-14T05:04:02.311Z,14.10
2022-12-14T05:06:50.855Z,14.35
2022-12-14T05:09:35.087Z,12.68
2022-12-14T05:12:12.622Z,14.57
2022-12-14T05:14:48.153Z,12.15
2022-12-14T05:17:17.235Z,14.10
2022-12-14T05:19:48.762Z,13.63
2022-12-14T05:22:18.539Z,12.60
2022-12-14T05:25:23.068Z,13.75
2022-12-14T05:27:50.470Z,10.80
2022-12-14T05:30:18.021Z,13.32
2022-12-14T05:32:45.775Z,13.02
2022-12-14T05:35:35.027Z,13.82
2022-12-14T05:38:06.010Z,14.20
2022-12-14T05:40:36.276Z,13.50
2022-12-14T05:43:14.216Z,13.85
2022-12-14T05:45:41.594Z,13.15
2022-12-14T05:48:15.637Z,13.35
2022-12-14T05:50:42.896Z,12.15
2022-12-14T05:53:11.588Z,13.18
2022-12-14T05:55:46.516Z,14.55
2022-12-14T05:58:17.548Z,12.77
2022-12-14T06:00:45.537Z,13.77
2022-12-14T06:03:12.999Z,15.00
2022-12-14T06:05:40.374Z,13.07
2022-12-14T06:08:07.901Z,12.23
2022-12-14T06:10:35.458Z,12.50
2022-12-14T06:13:05.280Z,11.85
2022-12-14T06:15:34.186Z,11.52
2022-12-14T06:18:01.732Z,12.73
2022-12-14T06:20:29.006Z,13.15
2022-12-14T06:22:56.386Z,12.52
2022-12-14T06:25:23.836Z,12.10
2022-12-14T06:27:54.962Z,12.63
2022-12-14T06:30:24.279Z,13.07
2022-12-14T06:32:51.516Z,9.65
2022-12-14T06:35:18.692Z,12.77
2022-12-14T06:37:46.020Z,11.80
2022-12-14T06:40:23.276Z,12.45
2022-12-14T06:42:52.091Z,11.20
2022-12-14T06:45:20.491Z,11.20
2022-12-14T06:47:52.671Z,10.40
2022-12-14T06:50:55.340Z,13.43
2022-12-14T06:53:22.589Z,12.52
2022-12-14T06:55:49.788Z,13.93
2022-12-14T06:58:17.164Z,10.85
2022-12-14T07:00:44.658Z,12.30
2022-12-14T07:03:12.057Z,13.05
2022-12-14T07:05:43.052Z,12.18
2022-12-14T07:08:12.907Z,12.48
2022-12-14T07:10:40.070Z,13.20
2022-12-14T07:13:07.350Z,12.68
2022-12-14T07:15:34.539Z,11.10
2022-12-14T07:18:05.850Z,12.63
2022-12-14T07:20:36.167Z,11.00
2022-12-14T07:23:03.330Z,13.57
2022-12-14T07:25:34.669Z,12.60
2022-12-14T07:28:02.046Z,11.70
2022-12-14T07:30:29.375Z,13.10
2022-12-14T07:32:56.614Z,11.20
2022-12-14T07:35:23.818Z,13.57
2022-12-14T07:37:51.382Z,11.40
2022-12-14T07:40:18.754Z,13.25
2022-12-14T07:42:50.248Z,10.23
2022-12-14T07:45:19.010Z,11.90
2022-12-14T07:47:46.434Z,13.13
2022-12-14T07:50:13.926Z,13.02
2022-12-14T07:52:42.329Z,12.88
2022-12-14T07:55:10.317Z,14.13
2022-12-14T07:57:37.365Z,8.70
2022-12-14T08:00:05.734Z,11.63
2022-12-14T08:02:40.905Z,10.45
2022-12-14T08:05:12.416Z,10.45
2022-12-14T08:07:40.862Z,11.35
2022-12-14T08:12:52.047Z,12.82
2022-12-14T08:15:19.725Z,12.05
2022-12-14T08:17:46.912Z,12.30
2022-12-14T08:20:15.079Z,12.07
2022-12-14T08:22:42.858Z,11.63
2022-12-14T08:25:10.522Z,13.13
2022-12-14T08:27:39.460Z,12.77
2022-12-14T08:30:20.146Z,11.60
2022-12-14T08:32:47.501Z,11.07
2022-12-14T08:35:22.635Z,12.75
2022-12-14T08:37:52.985Z,11.57
2022-12-14T08:40:21.145Z,12.50
2022-12-14T08:42:51.099Z,13.63
2022-12-14T08:45:18.467Z,11.45
2022-12-14T08:47:47.180Z,8.52
2022-12-14T08:50:14.614Z,10.05
2022-12-14T08:52:41.723Z,12.77
2022-12-14T08:55:09.418Z,11.10
2022-12-14T08:57:42.815Z,11.98
2022-12-14T09:00:11.562Z,12.23
2022-12-14T09:02:39.462Z,11.88
2022-12-14T09:05:07.564Z,12.02
2022-12-14T09:07:36.488Z,11.90
2022-12-14T09:10:04.468Z,11.65
2022-12-14T09:12:36.929Z,11.00
2022-12-14T09:19:55.820Z,12.43
2022-12-14T09:22:23.148Z,11.43
2022-12-14T09:24:52.119Z,10.05
2022-12-14T09:27:20.383Z,12.68
2022-12-14T09:29:49.008Z,13.30
2022-12-14T09:32:17.755Z,14.15
2022-12-14T09:34:45.044Z,12.70
2022-12-14T09:37:14.836Z,11.18
2022-12-14T09:39:43.068Z,13.73
2022-12-14T09:42:50.740Z,13.15
2022-12-14T09:45:35.260Z,13.10
2022-12-14T09:48:22.997Z,9.80
2022-12-14T09:51:08.155Z,11.98
2022-12-14T09:53:42.372Z,12.57
2022-12-14T09:56:17.492Z,12.70
2022-12-14T09:58:59.010Z,12.82
2022-12-14T10:01:55.432Z,13.07
2022-12-14T10:05:17.581Z,13.60
2022-12-14T10:08:04.231Z,13.98
2022-12-14T10:11:21.426Z,13.07
2022-12-14T10:14:17.297Z,13.35
2022-12-14T10:17:12.225Z,15.73
2022-12-14T10:19:58.031Z,13.18
2022-12-14T10:22:34.490Z,11.90
2022-12-14T10:25:14.743Z,13.20
2022-12-14T10:28:10.733Z,14.10
2022-12-14T10:30:54.789Z,16.52
2022-12-14T10:33:30.087Z,13.63
2022-12-14T10:36:21.157Z,14.90
2022-12-14T10:39:05.758Z,12.63
2022-12-14T11:21:15.446Z,12.05
2022-12-14T11:38:26.052Z,12.55
2022-12-14T11:41:44.632Z,12.27
2022-12-14T11:46:47.529Z,11.90
2022-12-14T11:50:41.247Z,11.93
2022-12-14T11:53:39.431Z,12.23
2022-12-14T11:58:59.198Z,11.88
2022-12-14T12:01:50.966Z,12.85
2022-12-14T12:04:35.863Z,12.50
2022-12-14T12:10:50.245Z,13.45
2022-12-14T12:16:51.073Z,12.52
2022-12-14T12:19:33.945Z,14.68
2022-12-14T12:22:04.550Z,14.53
2022-12-14T12:25:08.362Z,13.80
2022-12-14T12:27:34.222Z,15.25
2022-12-14T12:30:24.490Z,13.57
2022-12-14T12:32:55.044Z,15.65
2022-12-14T12:35:35.171Z,15.70
2022-12-14T12:38:31.249Z,15.70
2022-12-14T12:41:27.707Z,13.20
2022-12-14T12:44:12.049Z,14.90
2022-12-14T12:47:23.746Z,13.85
2022-12-14T12:49:48.852Z,13.55
2022-12-14T12:52:33.909Z,14.15
2022-12-14T12:55:26.046Z,13.18
2022-12-14T12:57:57.924Z,15.25
2022-12-14T13:01:47.089Z,16.42
2022-12-14T13:04:41.269Z,15.30
2022-12-14T13:07:32.147Z,14.77
2022-12-14T13:10:06.733Z,14.43
2022-12-14T13:12:42.449Z,12.88
2022-12-14T13:15:32.835Z,15.48
2022-12-14T13:18:49.185Z,15.50
2022-12-14T13:21:39.247Z,16.05
2022-12-14T13:24:15.908Z,15.40
2022-12-14T13:26:58.065Z,14.98
2022-12-14T13:30:12.630Z,13.98
2022-12-14T13:33:04.597Z,14.88
2022-12-14T13:36:36.930Z,16.07
2022-12-14T13:39:54.838Z,14.73
2022-12-14T13:42:52.311Z,14.95
2022-12-14T13:45:43.446Z,15.05
2022-12-14T13:48:40.103Z,14.70
2022-12-14T13:51:25.131Z,16.05
2022-12-14T13:53:57.144Z,15.45
2022-12-14T13:56:33.285Z,16.88
2022-12-14T13:59:16.386Z,15.73
2022-12-14T14:01:47.225Z,18.23
2022-12-14T14:04:18.680Z,18.15
2022-12-14T14:06:55.010Z,16.88
2022-12-14T14:09:37.661Z,17.10
2022-12-14T14:12:32.213Z,17.30
2022-12-14T14:15:08.802Z,17.13
2022-12-14T14:18:15.196Z,17.60
2022-12-14T14:20:59.654Z,16.63
2022-12-14T14:23:32.838Z,17.67
2022-12-14T14:26:33.728Z,17.50
2022-12-14T14:29:15.468Z,17.65
2022-12-14T14:31:51.796Z,17.90
2022-12-14T14:34:59.573Z,16.60
2022-12-14T14:38:10.488Z,18.27
2022-12-14T14:41:15.636Z,18.15
2022-12-14T14:43:50.292Z,17.13
2022-12-14T14:46:42.624Z,17.90
2022-12-14T14:49:38.654Z,17.50
2022-12-14T14:53:08.868Z,17.10
2022-12-14T14:56:00.979Z,18.95
2022-12-14T14:58:43.849Z,18.27
2022-12-14T15:01:29.908Z,18.00
2022-12-14T15:04:21.544Z,18.50
2022-12-14T15:07:44.414Z,18.13
2022-12-14T15:10:43.161Z,15.73
2022-12-14T15:16:49.188Z,17.58
2022-12-14T15:19:48.267Z,17.77
2022-12-14T15:22:19.907Z,18.67
2022-12-14T15:24:56.331Z,18.15
2022-12-14T15:27:36.163Z,16.13
2022-12-14T15:31:02.609Z,18.25
2022-12-14T15:34:33.022Z,19.23
2022-12-14T15:41:56.186Z,18.90
2022-12-14T15:51:18.683Z,17.33
2022-12-14T15:53:55.675Z,18.45
2022-12-14T15:57:00.672Z,18.13
2022-12-14T15:59:47.918Z,19.85
2022-12-14T16:02:39.524Z,18.83
2022-12-14T16:05:15.533Z,21.35
2022-12-14T16:07:49.689Z,19.83
2022-12-14T16:10:29.510Z,21.58
2022-12-14T16:13:23.978Z,19.75
2022-12-14T16:15:53.267Z,21.35
2022-12-14T16:18:51.023Z,19.48
2022-12-14T16:35:27.328Z,21.02
2022-12-14T16:38:04.486Z,21.67
2022-12-14T16:40:39.952Z,20.70
2022-12-14T16:43:25.349Z,19.75
2022-12-14T16:46:05.576Z,22.40
2022-12-14T16:48:42.932Z,23.02
2022-12-14T16:51:58.123Z,22.38
2022-12-14T16:54:34.326Z,21.70
2022-12-14T17:13:07.170Z,20.85
2022-12-14T17:43:14.412Z,22.23
2022-12-14T17:45:55.265Z,24.23
2022-12-14T17:48:45.091Z,24.20
2022-12-14T17:51:28.669Z,23.67
2022-12-14T17:54:03.538Z,23.50
2022-12-14T17:56:41.413Z,25.00
2022-12-14T17:59:08.723Z,24.70
2022-12-14T18:01:41.032Z,25.15
2022-12-14T18:04:08.415Z,23.55
2022-12-14T18:06:37.527Z,24.85
2022-12-14T18:09:08.006Z,24.67
2022-12-14T18:11:39.148Z,25.27
2022-12-14T18:14:13.507Z,24.73
2022-12-14T18:16:41.634Z,25.52
2022-12-14T18:19:08.989Z,25.63
2022-12-14T18:21:36.390Z,23.77
2022-12-14T18:24:09.341Z,24.48
2022-12-14T18:26:38.762Z,24.33
2022-12-14T18:29:06.055Z,23.85
2022-12-14T18:31:37.471Z,23.58
2022-12-14T18:34:05.460Z,24.87
2022-12-14T18:36:32.983Z,26.05
2022-12-14T18:39:01.079Z,24.10
2022-12-14T18:41:29.651Z,23.90
2022-12-14T18:43:57.964Z,22.98
2022-12-14T18:46:26.809Z,24.63
2022-12-14T18:48:56.038Z,24.38
2022-12-14T18:51:26.993Z,25.15
2022-12-14T18:54:00.815Z,25.02
2022-12-14T18:56:30.816Z,27.00
2022-12-14T18:59:00.458Z,25.95
2022-12-14T19:01:27.649Z,27.85
2022-12-14T19:03:54.851Z,27.13
2022-12-14T19:09:14.411Z,25.63
2022-12-14T19:11:42.470Z,27.25
2022-12-14T19:14:10.473Z,28.55
2022-12-14T19:16:38.200Z,28.65
2022-12-14T19:19:05.878Z,28.83
2022-12-14T19:21:32.982Z,27.80
2022-12-14T19:24:00.310Z,27.83
2022-12-14T19:26:29.209Z,28.42
2022-12-14T19:28:56.879Z,26.52
2022-12-14T19:31:23.994Z,27.35
2022-12-14T19:33:51.167Z,26.85
2022-12-14T19:36:19.305Z,26.83
2022-12-14T19:38:49.140Z,23.58
2022-12-14T19:41:20.464Z,23.90
2022-12-14T19:44:08.925Z,26.67
2022-12-14T19:46:36.298Z,24.48
2022-12-14T19:49:11.317Z,25.88
2022-12-14T19:51:38.855Z,24.75
2022-12-14T19:54:06.771Z,25.45
2022-12-14T19:56:33.957Z,25.02
2022-12-14T20:12:48.276Z,24.23
2022-12-14T20:16:15.709Z,23.50
2022-12-14T20:18:43.248Z,23.73
2022-12-14T20:21:22.096Z,24.83
2022-12-14T20:23:51.201Z,25.45
2022-12-14T20:26:22.167Z,27.60
2022-12-14T20:28:58.703Z,25.98
2022-12-14T20:31:26.648Z,26.58
2022-12-14T20:33:54.414Z,24.88
2022-12-14T20:36:23.222Z,25.15
2022-12-14T20:38:55.991Z,25.30
2022-12-14T20:42:10.280Z,25.08
2022-12-14T20:45:06.844Z,24.40
2022-12-14T20:47:35.897Z,23.77
2022-12-14T20:50:04.278Z,24.73
2022-12-14T20:52:31.598Z,25.52
2022-12-14T20:55:01.085Z,24.52
2022-12-14T20:57:32.962Z,24.88
2022-12-14T21:00:00.632Z,26.45
2022-12-14T21:02:28.206Z,24.05
2022-12-14T21:04:55.469Z,24.42
2022-12-14T21:07:59.186Z,25.58
2022-12-14T21:10:32.927Z,25.25
2022-12-14T21:30:40.411Z,24.13
2022-12-14T21:40:59.824Z,24.30
2022-12-14T21:43:27.145Z,25.27
2022-12-14T21:45:58.181Z,20.02
2022-12-14T21:48:25.403Z,23.10
2022-12-14T21:51:20.006Z,23.77
2022-12-14T21:54:00.947Z,23.58
2022-12-14T21:58:18.690Z,22.92
2022-12-14T22:06:23.163Z,24.85
2022-12-14T22:09:08.588Z,22.65
2022-12-14T22:11:36.017Z,23.67
2022-12-14T22:14:03.483Z,24.98
2022-12-14T22:16:34.151Z,21.30
2022-12-14T22:19:01.783Z,25.58
2022-12-14T22:21:29.253Z,23.77
2022-12-14T22:23:56.638Z,19.83
2022-12-14T22:26:24.793Z,25.23
2022-12-14T22:29:19.503Z,24.35
2022-12-14T22:32:51.526Z,24.65
2022-12-14T22:36:14.942Z,20.42
2022-12-14T22:38:43.325Z,24.88
2022-12-14T22:41:15.962Z,22.48
2022-12-14T22:43:44.158Z,24.40
2022-12-14T22:46:13.756Z,24.45
2022-12-14T22:48:41.666Z,23.38
2022-12-14T22:51:15.097Z,20.42
2022-12-14T22:57:50.172Z,22.02
2022-12-14T23:01:16.576Z,22.15
2022-12-14T23:16:22.206Z,22.20
2022-12-14T23:20:07.541Z,21.00
2022-12-14T23:33:21.362Z,20.15
2022-12-14T23:36:07.202Z,22.27
2022-12-14T23:38:53.226Z,23.73
2022-12-14T23:41:38.887Z,23.20
2022-12-14T23:44:24.585Z,24.23
2022-12-14T23:47:10.149Z,23.40
2022-12-14T23:49:55.867Z,24.27
2022-12-14T23:58:24.788Z,23.50
